sensor_id;sensor_type;location;lat;lon;timestamp;temperature;humidity
32865;DHT22;19219;44.500;11.188;2023-04-03T00:00:22;7.70;99.90
32865;DHT22;19219;44.500;11.188;2023-04-03T00:02:48;7.70;99.90
32865;DHT22;19219;44.500;11.188;2023-04-03T00:05:14;7.60;99.90
32865;DHT22;19219;44.500;11.188;2023-04-03T00:07:39;7.60;99.90
32865;DHT22;19219;44.500;11.188;2023-04-03T00:10:06;7.60;99.90
32865;DHT22;19219;44.500;11.188;2023-04-03T00:12:31;7.60;99.90
32865;DHT22;19219;44.500;11.188;2023-04-03T00:14:57;7.60;99.90
32865;DHT22;19219;44.500;11.188;2023-04-03T00:17:23;7.60;99.90
32865;DHT22;19219;44.500;11.188;2023-04-03T00:19:48;7.60;99.90
32865;DHT22;19219;44.500;11.188;2023-04-03T00:22:14;7.70;99.90
32865;DHT22;19219;44.500;11.188;2023-04-03T00:24:40;7.70;99.90
32865;DHT22;19219;44.500;11.188;2023-04-03T00:27:06;7.80;99.90
32865;DHT22;19219;44.500;11.188;2023-04-03T00:29:31;7.80;99.90
32865;DHT22;19219;44.500;11.188;2023-04-03T00:31:57;7.90;99.90
32865;DHT22;19219;44.500;11.188;2023-04-03T00:34:22;7.90;99.90
32865;DHT22;19219;44.500;11.188;2023-04-03T00:36:48;7.80;99.90
32865;DHT22;19219;44.500;11.188;2023-04-03T00:39:14;7.70;99.90
32865;DHT22;19219;44.500;11.188;2023-04-03T00:41:39;7.60;99.90
32865;DHT22;19219;44.500;11.188;2023-04-03T00:46:52;7.60;99.90
32865;DHT22;19219;44.500;11.188;2023-04-03T00:49:18;7.70;99.90
32865;DHT22;19219;44.500;11.188;2023-04-03T00:51:44;7.80;99.90
32865;DHT22;19219;44.500;11.188;2023-04-03T00:54:11;7.80;99.90
32865;DHT22;19219;44.500;11.188;2023-04-03T00:56:37;7.80;99.90
32865;DHT22;19219;44.500;11.188;2023-04-03T00:59:10;7.70;99.90
32865;DHT22;19219;44.500;11.188;2023-04-03T01:01:37;7.60;99.90
32865;DHT22;19219;44.500;11.188;2023-04-03T01:04:04;7.70;99.90
32865;DHT22;19219;44.500;11.188;2023-04-03T01:06:35;7.70;99.90
32865;DHT22;19219;44.500;11.188;2023-04-03T01:09:02;7.70;99.90
32865;DHT22;19219;44.500;11.188;2023-04-03T01:11:28;7.70;99.90
32865;DHT22;19219;44.500;11.188;2023-04-03T01:13:53;7.70;99.90
32865;DHT22;19219;44.500;11.188;2023-04-03T01:16:19;7.60;99.90
32865;DHT22;19219;44.500;11.188;2023-04-03T01:18:45;7.50;99.90
32865;DHT22;19219;44.500;11.188;2023-04-03T01:24:34;7.40;99.90
32865;DHT22;19219;44.500;11.188;2023-04-03T01:27:02;7.30;99.90
32865;DHT22;19219;44.500;11.188;2023-04-03T01:29:28;7.30;99.90
32865;DHT22;19219;44.500;11.188;2023-04-03T01:31:57;7.40;99.90
32865;DHT22;19219;44.500;11.188;2023-04-03T01:34:23;7.30;99.90
32865;DHT22;19219;44.500;11.188;2023-04-03T01:36:50;7.30;99.90
32865;DHT22;19219;44.500;11.188;2023-04-03T01:39:16;7.30;99.90
32865;DHT22;19219;44.500;11.188;2023-04-03T01:41:42;7.30;99.90
32865;DHT22;19219;44.500;11.188;2023-04-03T01:44:08;7.30;99.90
32865;DHT22;19219;44.500;11.188;2023-04-03T01:46:33;7.30;99.90
32865;DHT22;19219;44.500;11.188;2023-04-03T01:48:59;7.30;99.90
32865;DHT22;19219;44.500;11.188;2023-04-03T01:51:25;7.30;99.90
32865;DHT22;19219;44.500;11.188;2023-04-03T01:53:50;7.30;99.90
32865;DHT22;19219;44.500;11.188;2023-04-03T01:56:17;7.30;99.90
32865;DHT22;19219;44.500;11.188;2023-04-03T01:58:42;7.40;99.90
32865;DHT22;19219;44.500;11.188;2023-04-03T02:01:08;7.40;99.90
32865;DHT22;19219;44.500;11.188;2023-04-03T02:03:34;7.40;99.90
32865;DHT22;19219;44.500;11.188;2023-04-03T02:06:00;7.30;99.90
32865;DHT22;19219;44.500;11.188;2023-04-03T02:08:25;7.40;99.90
32865;DHT22;19219;44.500;11.188;2023-04-03T02:10:51;7.30;99.90
32865;DHT22;19219;44.500;11.188;2023-04-03T02:13:17;7.30;99.90
32865;DHT22;19219;44.500;11.188;2023-04-03T02:15:43;7.20;99.90
32865;DHT22;19219;44.500;11.188;2023-04-03T02:18:09;7.10;99.90
32865;DHT22;19219;44.500;11.188;2023-04-03T02:20:34;7.10;99.90
32865;DHT22;19219;44.500;11.188;2023-04-03T02:23:00;7.00;99.90
32865;DHT22;19219;44.500;11.188;2023-04-03T02:25:26;7.10;99.90
32865;DHT22;19219;44.500;11.188;2023-04-03T02:27:52;7.10;99.90
32865;DHT22;19219;44.500;11.188;2023-04-03T02:30:18;7.20;99.90
32865;DHT22;19219;44.500;11.188;2023-04-03T02:32:43;7.30;99.90
32865;DHT22;19219;44.500;11.188;2023-04-03T02:35:10;7.40;99.90
32865;DHT22;19219;44.500;11.188;2023-04-03T02:37:37;7.60;99.90
32865;DHT22;19219;44.500;11.188;2023-04-03T02:40:03;7.60;99.90
32865;DHT22;19219;44.500;11.188;2023-04-03T02:42:29;7.70;99.90
32865;DHT22;19219;44.500;11.188;2023-04-03T02:44:55;7.80;99.90
32865;DHT22;19219;44.500;11.188;2023-04-03T02:47:21;7.90;99.90
32865;DHT22;19219;44.500;11.188;2023-04-03T02:49:47;7.90;99.90
32865;DHT22;19219;44.500;11.188;2023-04-03T02:52:14;8.00;99.90
32865;DHT22;19219;44.500;11.188;2023-04-03T02:54:40;8.00;99.90
32865;DHT22;19219;44.500;11.188;2023-04-03T02:57:06;8.00;99.90
32865;DHT22;19219;44.500;11.188;2023-04-03T02:59:37;8.00;99.90
32865;DHT22;19219;44.500;11.188;2023-04-03T03:02:07;8.00;99.90
32865;DHT22;19219;44.500;11.188;2023-04-03T03:04:33;7.90;99.90
32865;DHT22;19219;44.500;11.188;2023-04-03T03:06:59;7.90;99.90
32865;DHT22;19219;44.500;11.188;2023-04-03T03:09:24;7.80;99.90
32865;DHT22;19219;44.500;11.188;2023-04-03T03:11:51;7.90;99.90
32865;DHT22;19219;44.500;11.188;2023-04-03T03:14:16;7.80;99.90
32865;DHT22;19219;44.500;11.188;2023-04-03T03:16:42;7.80;99.90
32865;DHT22;19219;44.500;11.188;2023-04-03T03:19:08;7.90;99.90
32865;DHT22;19219;44.500;11.188;2023-04-03T03:21:33;7.90;99.90
32865;DHT22;19219;44.500;11.188;2023-04-03T03:23:59;7.80;99.90
32865;DHT22;19219;44.500;11.188;2023-04-03T03:26:25;7.70;99.90
32865;DHT22;19219;44.500;11.188;2023-04-03T03:28:51;7.60;99.90
32865;DHT22;19219;44.500;11.188;2023-04-03T03:31:16;7.60;99.90
32865;DHT22;19219;44.500;11.188;2023-04-03T03:33:42;7.60;99.90
32865;DHT22;19219;44.500;11.188;2023-04-03T03:36:08;7.60;99.90
32865;DHT22;19219;44.500;11.188;2023-04-03T03:38:33;7.60;99.90
32865;DHT22;19219;44.500;11.188;2023-04-03T03:40:59;7.50;99.90
32865;DHT22;19219;44.500;11.188;2023-04-03T03:43:25;7.50;99.90
32865;DHT22;19219;44.500;11.188;2023-04-03T03:45:52;7.40;99.90
32865;DHT22;19219;44.500;11.188;2023-04-03T03:48:18;7.40;99.90
32865;DHT22;19219;44.500;11.188;2023-04-03T03:50:45;7.40;99.90
32865;DHT22;19219;44.500;11.188;2023-04-03T03:53:11;7.50;99.90
32865;DHT22;19219;44.500;11.188;2023-04-03T03:55:36;7.50;99.90
32865;DHT22;19219;44.500;11.188;2023-04-03T03:58:02;7.60;99.90
32865;DHT22;19219;44.500;11.188;2023-04-03T04:00:29;7.60;99.90
32865;DHT22;19219;44.500;11.188;2023-04-03T04:02:54;7.50;99.90
32865;DHT22;19219;44.500;11.188;2023-04-03T04:05:21;7.60;99.90
32865;DHT22;19219;44.500;11.188;2023-04-03T04:07:47;7.60;99.90
32865;DHT22;19219;44.500;11.188;2023-04-03T04:10:13;7.60;99.90
32865;DHT22;19219;44.500;11.188;2023-04-03T04:12:39;7.60;99.90
32865;DHT22;19219;44.500;11.188;2023-04-03T04:15:05;7.70;99.90
32865;DHT22;19219;44.500;11.188;2023-04-03T04:17:31;7.60;99.90
32865;DHT22;19219;44.500;11.188;2023-04-03T04:19:57;7.60;99.90
32865;DHT22;19219;44.500;11.188;2023-04-03T04:22:22;7.60;99.90
32865;DHT22;19219;44.500;11.188;2023-04-03T04:24:48;7.60;99.90
32865;DHT22;19219;44.500;11.188;2023-04-03T04:27:14;7.60;99.90
32865;DHT22;19219;44.500;11.188;2023-04-03T04:29:41;7.60;99.90
32865;DHT22;19219;44.500;11.188;2023-04-03T04:32:06;7.60;99.90
32865;DHT22;19219;44.500;11.188;2023-04-03T04:34:32;7.70;99.90
32865;DHT22;19219;44.500;11.188;2023-04-03T04:36:58;7.70;99.90
32865;DHT22;19219;44.500;11.188;2023-04-03T04:39:23;7.70;99.90
32865;DHT22;19219;44.500;11.188;2023-04-03T04:41:49;7.70;99.90
32865;DHT22;19219;44.500;11.188;2023-04-03T04:44:15;7.60;99.90
32865;DHT22;19219;44.500;11.188;2023-04-03T04:46:41;7.70;99.90
32865;DHT22;19219;44.500;11.188;2023-04-03T04:49:07;7.70;99.90
32865;DHT22;19219;44.500;11.188;2023-04-03T04:51:32;7.60;99.90
32865;DHT22;19219;44.500;11.188;2023-04-03T04:53:58;7.60;99.90
32865;DHT22;19219;44.500;11.188;2023-04-03T04:56:23;7.60;99.90
32865;DHT22;19219;44.500;11.188;2023-04-03T04:58:50;7.60;99.90
32865;DHT22;19219;44.500;11.188;2023-04-03T05:01:16;7.60;99.90
32865;DHT22;19219;44.500;11.188;2023-04-03T05:03:42;7.60;99.90
32865;DHT22;19219;44.500;11.188;2023-04-03T05:06:07;7.50;99.90
32865;DHT22;19219;44.500;11.188;2023-04-03T05:08:33;7.40;99.90
32865;DHT22;19219;44.500;11.188;2023-04-03T05:10:59;7.40;99.90
32865;DHT22;19219;44.500;11.188;2023-04-03T05:13:24;7.30;99.90
32865;DHT22;19219;44.500;11.188;2023-04-03T05:15:50;7.40;99.90
32865;DHT22;19219;44.500;11.188;2023-04-03T05:18:16;7.50;99.90
32865;DHT22;19219;44.500;11.188;2023-04-03T05:20:41;7.40;99.90
32865;DHT22;19219;44.500;11.188;2023-04-03T05:23:09;7.40;99.90
32865;DHT22;19219;44.500;11.188;2023-04-03T05:25:38;7.40;99.90
32865;DHT22;19219;44.500;11.188;2023-04-03T05:28:03;7.40;99.90
32865;DHT22;19219;44.500;11.188;2023-04-03T05:30:29;7.30;99.90
32865;DHT22;19219;44.500;11.188;2023-04-03T05:32:55;7.30;99.90
32865;DHT22;19219;44.500;11.188;2023-04-03T05:35:21;7.30;99.90
32865;DHT22;19219;44.500;11.188;2023-04-03T05:37:46;7.30;99.90
32865;DHT22;19219;44.500;11.188;2023-04-03T05:40:12;7.40;99.90
32865;DHT22;19219;44.500;11.188;2023-04-03T05:42:38;7.50;99.90
32865;DHT22;19219;44.500;11.188;2023-04-03T05:45:04;7.60;99.90
32865;DHT22;19219;44.500;11.188;2023-04-03T05:47:30;7.70;99.90
32865;DHT22;19219;44.500;11.188;2023-04-03T05:49:56;7.80;99.90
32865;DHT22;19219;44.500;11.188;2023-04-03T05:52:30;7.90;99.90
32865;DHT22;19219;44.500;11.188;2023-04-03T05:54:57;8.00;99.90
32865;DHT22;19219;44.500;11.188;2023-04-03T05:57:23;8.10;99.90
32865;DHT22;19219;44.500;11.188;2023-04-03T05:59:49;8.20;99.90
32865;DHT22;19219;44.500;11.188;2023-04-03T06:02:20;8.40;99.90
32865;DHT22;19219;44.500;11.188;2023-04-03T06:04:46;8.60;99.90
32865;DHT22;19219;44.500;11.188;2023-04-03T06:07:17;8.90;99.90
32865;DHT22;19219;44.500;11.188;2023-04-03T06:09:44;9.10;99.90
32865;DHT22;19219;44.500;11.188;2023-04-03T06:12:10;9.30;99.90
32865;DHT22;19219;44.500;11.188;2023-04-03T06:14:37;9.50;99.90
32865;DHT22;19219;44.500;11.188;2023-04-03T06:17:03;9.60;99.90
32865;DHT22;19219;44.500;11.188;2023-04-03T06:19:28;9.90;99.90
32865;DHT22;19219;44.500;11.188;2023-04-03T06:21:54;10.40;99.90
32865;DHT22;19219;44.500;11.188;2023-04-03T06:24:20;11.40;99.90
32865;DHT22;19219;44.500;11.188;2023-04-03T06:26:48;12.90;99.90
32865;DHT22;19219;44.500;11.188;2023-04-03T06:29:15;14.70;99.90
32865;DHT22;19219;44.500;11.188;2023-04-03T06:31:40;16.20;99.90
32865;DHT22;19219;44.500;11.188;2023-04-03T06:34:06;17.90;99.90
32865;DHT22;19219;44.500;11.188;2023-04-03T06:36:33;19.40;99.90
32865;DHT22;19219;44.500;11.188;2023-04-03T06:38:58;20.60;99.90
32865;DHT22;19219;44.500;11.188;2023-04-03T06:41:24;21.50;99.90
32865;DHT22;19219;44.500;11.188;2023-04-03T06:43:51;21.90;96.50
32865;DHT22;19219;44.500;11.188;2023-04-03T06:46:19;22.30;92.90
32865;DHT22;19219;44.500;11.188;2023-04-03T06:48:46;22.40;92.00
32865;DHT22;19219;44.500;11.188;2023-04-03T06:51:20;22.90;91.80
32865;DHT22;19219;44.500;11.188;2023-04-03T06:53:51;23.20;88.50
32865;DHT22;19219;44.500;11.188;2023-04-03T06:56:18;23.20;89.10
32865;DHT22;19219;44.500;11.188;2023-04-03T06:58:44;23.20;86.20
32865;DHT22;19219;44.500;11.188;2023-04-03T07:01:11;23.60;84.80
32865;DHT22;19219;44.500;11.188;2023-04-03T07:03:38;24.00;82.70
32865;DHT22;19219;44.500;11.188;2023-04-03T07:06:04;24.10;81.30
32865;DHT22;19219;44.500;11.188;2023-04-03T07:08:31;23.60;79.50
32865;DHT22;19219;44.500;11.188;2023-04-03T07:10:57;23.60;77.40
32865;DHT22;19219;44.500;11.188;2023-04-03T07:13:23;23.10;78.90
32865;DHT22;19219;44.500;11.188;2023-04-03T07:15:48;22.60;79.00
32865;DHT22;19219;44.500;11.188;2023-04-03T07:18:15;23.30;80.90
32865;DHT22;19219;44.500;11.188;2023-04-03T07:20:42;23.70;77.60
32865;DHT22;19219;44.500;11.188;2023-04-03T07:23:08;24.10;75.90
32865;DHT22;19219;44.500;11.188;2023-04-03T07:25:34;25.00;75.50
32865;DHT22;19219;44.500;11.188;2023-04-03T07:27:59;25.10;72.20
32865;DHT22;19219;44.500;11.188;2023-04-03T07:30:25;25.20;71.70
32865;DHT22;19219;44.500;11.188;2023-04-03T07:32:52;25.30;69.30
32865;DHT22;19219;44.500;11.188;2023-04-03T07:35:18;25.80;70.00
32865;DHT22;19219;44.500;11.188;2023-04-03T07:37:44;25.90;67.80
32865;DHT22;19219;44.500;11.188;2023-04-03T07:40:10;26.10;67.70
32865;DHT22;19219;44.500;11.188;2023-04-03T07:42:36;25.60;66.70
32865;DHT22;19219;44.500;11.188;2023-04-03T07:45:03;25.80;67.50
32865;DHT22;19219;44.500;11.188;2023-04-03T07:47:29;26.10;65.60
32865;DHT22;19219;44.500;11.188;2023-04-03T07:49:55;26.00;64.90
32865;DHT22;19219;44.500;11.188;2023-04-03T07:52:22;27.20;65.10
32865;DHT22;19219;44.500;11.188;2023-04-03T07:54:48;27.70;63.30
32865;DHT22;19219;44.500;11.188;2023-04-03T07:57:14;28.10;62.50
32865;DHT22;19219;44.500;11.188;2023-04-03T07:59:40;28.70;59.80
32865;DHT22;19219;44.500;11.188;2023-04-03T08:02:09;28.90;59.10
32865;DHT22;19219;44.500;11.188;2023-04-03T08:04:35;28.50;58.00
32865;DHT22;19219;44.500;11.188;2023-04-03T08:07:01;29.00;57.30
32865;DHT22;19219;44.500;11.188;2023-04-03T08:09:27;28.60;55.90
32865;DHT22;19219;44.500;11.188;2023-04-03T08:11:52;28.90;56.30
32865;DHT22;19219;44.500;11.188;2023-04-03T08:14:19;28.60;55.30
32865;DHT22;19219;44.500;11.188;2023-04-03T08:16:46;28.20;55.60
32865;DHT22;19219;44.500;11.188;2023-04-03T08:19:12;28.70;55.90
32865;DHT22;19219;44.500;11.188;2023-04-03T08:21:40;28.90;55.60
32865;DHT22;19219;44.500;11.188;2023-04-03T08:24:07;28.60;55.50
32865;DHT22;19219;44.500;11.188;2023-04-03T08:26:34;28.20;55.20
32865;DHT22;19219;44.500;11.188;2023-04-03T08:29:00;29.10;55.80
32865;DHT22;19219;44.500;11.188;2023-04-03T08:31:26;28.60;54.50
32865;DHT22;19219;44.500;11.188;2023-04-03T08:33:52;27.80;56.90
32865;DHT22;19219;44.500;11.188;2023-04-03T08:36:24;27.00;56.80
32865;DHT22;19219;44.500;11.188;2023-04-03T08:38:51;27.50;57.50
32865;DHT22;19219;44.500;11.188;2023-04-03T08:41:34;28.20;57.10
32865;DHT22;19219;44.500;11.188;2023-04-03T08:44:25;27.10;56.80
32865;DHT22;19219;44.500;11.188;2023-04-03T08:47:28;25.60;59.70
32865;DHT22;19219;44.500;11.188;2023-04-03T08:50:05;25.50;61.80
32865;DHT22;19219;44.500;11.188;2023-04-03T08:52:36;24.50;62.50
32865;DHT22;19219;44.500;11.188;2023-04-03T08:55:07;24.60;64.00
32865;DHT22;19219;44.500;11.188;2023-04-03T08:57:41;24.00;64.70
32865;DHT22;19219;44.500;11.188;2023-04-03T09:00:16;22.10;68.60
32865;DHT22;19219;44.500;11.188;2023-04-03T09:02:53;20.70;76.30
32865;DHT22;19219;44.500;11.188;2023-04-03T09:08:07;18.90;88.10
32865;DHT22;19219;44.500;11.188;2023-04-03T09:10:38;18.60;91.40
32865;DHT22;19219;44.500;11.188;2023-04-03T09:13:29;18.50;93.90
32865;DHT22;19219;44.500;11.188;2023-04-03T09:15:52;18.60;95.50
32865;DHT22;19219;44.500;11.188;2023-04-03T09:18:20;18.60;96.60
32865;DHT22;19219;44.500;11.188;2023-04-03T09:21:23;18.40;97.30
32865;DHT22;19219;44.500;11.188;2023-04-03T09:23:45;18.30;98.40
32865;DHT22;19219;44.500;11.188;2023-04-03T09:26:36;18.60;99.20
32865;DHT22;19219;44.500;11.188;2023-04-03T09:29:08;18.40;99.10
32865;DHT22;19219;44.500;11.188;2023-04-03T09:31:42;18.30;99.70
32865;DHT22;19219;44.500;11.188;2023-04-03T09:34:20;18.10;99.90
32865;DHT22;19219;44.500;11.188;2023-04-03T09:36:50;17.90;99.90
32865;DHT22;19219;44.500;11.188;2023-04-03T09:39:19;17.60;99.90
32865;DHT22;19219;44.500;11.188;2023-04-03T09:42:02;17.30;99.90
32865;DHT22;19219;44.500;11.188;2023-04-03T09:44:34;16.80;99.90
32865;DHT22;19219;44.500;11.188;2023-04-03T09:47:18;16.30;99.90
32865;DHT22;19219;44.500;11.188;2023-04-03T09:49:44;15.80;99.90
32865;DHT22;19219;44.500;11.188;2023-04-03T09:52:23;15.50;99.90
32865;DHT22;19219;44.500;11.188;2023-04-03T09:54:50;15.50;99.90
32865;DHT22;19219;44.500;11.188;2023-04-03T09:57:16;15.40;99.90
32865;DHT22;19219;44.500;11.188;2023-04-03T09:59:56;15.50;99.90
32865;DHT22;19219;44.500;11.188;2023-04-03T10:02:36;15.50;99.90
32865;DHT22;19219;44.500;11.188;2023-04-03T10:05:05;15.60;99.90
32865;DHT22;19219;44.500;11.188;2023-04-03T10:07:49;15.60;99.90
32865;DHT22;19219;44.500;11.188;2023-04-03T10:10:16;15.30;99.90
32865;DHT22;19219;44.500;11.188;2023-04-03T10:12:45;15.00;99.90
32865;DHT22;19219;44.500;11.188;2023-04-03T10:15:13;15.10;99.90
32865;DHT22;19219;44.500;11.188;2023-04-03T10:18:07;15.10;99.90
32865;DHT22;19219;44.500;11.188;2023-04-03T10:20:40;15.30;99.90
32865;DHT22;19219;44.500;11.188;2023-04-03T10:28:32;15.30;99.90
32865;DHT22;19219;44.500;11.188;2023-04-03T10:39:14;14.50;99.90
32865;DHT22;19219;44.500;11.188;2023-04-03T10:42:04;14.60;99.90
32865;DHT22;19219;44.500;11.188;2023-04-03T10:47:37;15.30;99.90
32865;DHT22;19219;44.500;11.188;2023-04-03T10:55:43;16.30;99.90
32865;DHT22;19219;44.500;11.188;2023-04-03T10:58:29;16.40;99.90
32865;DHT22;19219;44.500;11.188;2023-04-03T11:00:59;16.60;99.90
32865;DHT22;19219;44.500;11.188;2023-04-03T11:04:10;16.40;99.90
32865;DHT22;19219;44.500;11.188;2023-04-03T11:06:18;16.50;99.90
32865;DHT22;19219;44.500;11.188;2023-04-03T11:08:49;16.10;99.90
32865;DHT22;19219;44.500;11.188;2023-04-03T11:11:39;15.70;99.90
32865;DHT22;19219;44.500;11.188;2023-04-03T11:27:55;15.20;99.90
32865;DHT22;19219;44.500;11.188;2023-04-03T11:30:33;15.60;99.90
32865;DHT22;19219;44.500;11.188;2023-04-03T11:35:57;16.10;99.90
32865;DHT22;19219;44.500;11.188;2023-04-03T11:38:33;15.70;99.90
32865;DHT22;19219;44.500;11.188;2023-04-03T11:41:03;15.70;99.90
32865;DHT22;19219;44.500;11.188;2023-04-03T11:43:31;15.70;99.90
32865;DHT22;19219;44.500;11.188;2023-04-03T11:45:59;15.50;99.90
32865;DHT22;19219;44.500;11.188;2023-04-03T11:50:57;15.30;99.90
32865;DHT22;19219;44.500;11.188;2023-04-03T11:53:35;15.20;99.90
32865;DHT22;19219;44.500;11.188;2023-04-03T11:59:16;16.00;99.90
32865;DHT22;19219;44.500;11.188;2023-04-03T12:04:15;16.00;99.90
32865;DHT22;19219;44.500;11.188;2023-04-03T12:06:42;16.40;99.90
32865;DHT22;19219;44.500;11.188;2023-04-03T12:09:29;16.50;99.90
32865;DHT22;19219;44.500;11.188;2023-04-03T12:11:59;16.50;99.90
32865;DHT22;19219;44.500;11.188;2023-04-03T12:14:27;16.50;99.40
32865;DHT22;19219;44.500;11.188;2023-04-03T12:16:54;16.40;98.60
32865;DHT22;19219;44.500;11.188;2023-04-03T12:19:38;16.20;99.50
32865;DHT22;19219;44.500;11.188;2023-04-03T12:22:19;15.90;99.80
32865;DHT22;19219;44.500;11.188;2023-04-03T12:24:49;16.00;99.90
32865;DHT22;19219;44.500;11.188;2023-04-03T12:27:26;16.20;99.10
32865;DHT22;19219;44.500;11.188;2023-04-03T12:30:04;16.30;98.10
32865;DHT22;19219;44.500;11.188;2023-04-03T12:40:31;16.70;98.60
32865;DHT22;19219;44.500;11.188;2023-04-03T12:51:18;16.70;96.20
32865;DHT22;19219;44.500;11.188;2023-04-03T12:53:45;17.00;95.00
32865;DHT22;19219;44.500;11.188;2023-04-03T12:56:28;17.10;95.40
32865;DHT22;19219;44.500;11.188;2023-04-03T12:59:12;16.70;94.90
32865;DHT22;19219;44.500;11.188;2023-04-03T13:01:38;16.50;94.00
32865;DHT22;19219;44.500;11.188;2023-04-03T13:04:04;16.70;95.00
32865;DHT22;19219;44.500;11.188;2023-04-03T13:06:36;16.90;95.20
32865;DHT22;19219;44.500;11.188;2023-04-03T13:09:03;16.90;95.30
32865;DHT22;19219;44.500;11.188;2023-04-03T13:11:39;16.50;93.80
32865;DHT22;19219;44.500;11.188;2023-04-03T13:14:17;16.30;92.80
32865;DHT22;19219;44.500;11.188;2023-04-03T13:16:59;16.40;93.70
32865;DHT22;19219;44.500;11.188;2023-04-03T13:19:26;16.50;92.80
32865;DHT22;19219;44.500;11.188;2023-04-03T13:24:30;16.80;92.60
32865;DHT22;19219;44.500;11.188;2023-04-03T13:26:58;16.60;91.20
32865;DHT22;19219;44.500;11.188;2023-04-03T13:29:32;16.50;90.50
32865;DHT22;19219;44.500;11.188;2023-04-03T13:32:00;16.60;90.80
32865;DHT22;19219;44.500;11.188;2023-04-03T13:34:28;16.60;92.90
32865;DHT22;19219;44.500;11.188;2023-04-03T13:36:57;16.30;92.30
32865;DHT22;19219;44.500;11.188;2023-04-03T13:39:34;16.30;92.20
32865;DHT22;19219;44.500;11.188;2023-04-03T13:42:15;16.60;91.90
32865;DHT22;19219;44.500;11.188;2023-04-03T13:44:43;16.70;91.80
32865;DHT22;19219;44.500;11.188;2023-04-03T13:47:16;16.80;91.70
32865;DHT22;19219;44.500;11.188;2023-04-03T13:52:44;16.80;91.50
32865;DHT22;19219;44.500;11.188;2023-04-03T13:55:24;16.90;91.40
32865;DHT22;19219;44.500;11.188;2023-04-03T14:05:49;17.00;90.00
32865;DHT22;19219;44.500;11.188;2023-04-03T14:08:14;16.90;89.70
32865;DHT22;19219;44.500;11.188;2023-04-03T14:10:42;16.60;90.80
32865;DHT22;19219;44.500;11.188;2023-04-03T14:13:12;16.60;89.20
32865;DHT22;19219;44.500;11.188;2023-04-03T14:15:38;16.40;88.50
32865;DHT22;19219;44.500;11.188;2023-04-03T14:18:04;16.40;90.30
32865;DHT22;19219;44.500;11.188;2023-04-03T14:20:30;16.50;89.40
32865;DHT22;19219;44.500;11.188;2023-04-03T14:22:56;16.40;90.70
32865;DHT22;19219;44.500;11.188;2023-04-03T14:25:22;16.60;90.80
32865;DHT22;19219;44.500;11.188;2023-04-03T14:27:50;16.60;89.20
32865;DHT22;19219;44.500;11.188;2023-04-03T14:30:22;16.60;89.60
32865;DHT22;19219;44.500;11.188;2023-04-03T14:32:48;16.50;90.80
32865;DHT22;19219;44.500;11.188;2023-04-03T14:35:16;16.40;90.70
32865;DHT22;19219;44.500;11.188;2023-04-03T14:37:42;16.40;90.70
32865;DHT22;19219;44.500;11.188;2023-04-03T14:40:11;16.40;90.30
32865;DHT22;19219;44.500;11.188;2023-04-03T14:42:38;16.20;89.50
32865;DHT22;19219;44.500;11.188;2023-04-03T14:45:07;16.30;87.80
32865;DHT22;19219;44.500;11.188;2023-04-03T14:47:43;16.30;85.40
32865;DHT22;19219;44.500;11.188;2023-04-03T14:50:15;16.40;84.20
32865;DHT22;19219;44.500;11.188;2023-04-03T14:52:41;16.40;85.50
32865;DHT22;19219;44.500;11.188;2023-04-03T14:55:08;16.30;84.50
32865;DHT22;19219;44.500;11.188;2023-04-03T14:57:34;16.10;85.80
32865;DHT22;19219;44.500;11.188;2023-04-03T15:00:00;16.10;86.70
32865;DHT22;19219;44.500;11.188;2023-04-03T15:02:36;16.20;86.30
32865;DHT22;19219;44.500;11.188;2023-04-03T15:05:05;16.30;84.30
32865;DHT22;19219;44.500;11.188;2023-04-03T15:07:34;16.30;84.20
32865;DHT22;19219;44.500;11.188;2023-04-03T15:10:21;16.30;85.10
32865;DHT22;19219;44.500;11.188;2023-04-03T15:12:48;16.10;83.40
32865;DHT22;19219;44.500;11.188;2023-04-03T15:15:14;16.00;84.10
32865;DHT22;19219;44.500;11.188;2023-04-03T15:17:41;16.10;84.50
32865;DHT22;19219;44.500;11.188;2023-04-03T15:20:14;16.20;85.00
32865;DHT22;19219;44.500;11.188;2023-04-03T15:22:40;16.20;82.20
32865;DHT22;19219;44.500;11.188;2023-04-03T15:25:06;16.20;83.10
32865;DHT22;19219;44.500;11.188;2023-04-03T15:27:32;16.20;83.90
32865;DHT22;19219;44.500;11.188;2023-04-03T15:29:58;16.20;82.30
32865;DHT22;19219;44.500;11.188;2023-04-03T15:32:24;16.30;83.30
32865;DHT22;19219;44.500;11.188;2023-04-03T15:34:50;16.30;82.10
32865;DHT22;19219;44.500;11.188;2023-04-03T15:37:15;16.20;82.70
32865;DHT22;19219;44.500;11.188;2023-04-03T15:39:41;16.20;82.80
32865;DHT22;19219;44.500;11.188;2023-04-03T15:42:07;16.20;81.80
32865;DHT22;19219;44.500;11.188;2023-04-03T15:44:34;16.20;82.50
32865;DHT22;19219;44.500;11.188;2023-04-03T15:47:01;16.20;83.20
32865;DHT22;19219;44.500;11.188;2023-04-03T15:49:27;16.20;82.60
32865;DHT22;19219;44.500;11.188;2023-04-03T15:51:53;16.10;83.60
32865;DHT22;19219;44.500;11.188;2023-04-03T15:54:19;16.10;83.10
32865;DHT22;19219;44.500;11.188;2023-04-03T15:56:45;15.90;81.70
32865;DHT22;19219;44.500;11.188;2023-04-03T15:59:11;15.70;84.20
32865;DHT22;19219;44.500;11.188;2023-04-03T16:01:38;15.70;85.00
32865;DHT22;19219;44.500;11.188;2023-04-03T16:04:05;15.60;84.00
32865;DHT22;19219;44.500;11.188;2023-04-03T16:06:32;15.70;84.60
32865;DHT22;19219;44.500;11.188;2023-04-03T16:08:59;15.70;82.60
32865;DHT22;19219;44.500;11.188;2023-04-03T16:11:27;15.70;80.40
32865;DHT22;19219;44.500;11.188;2023-04-03T16:13:54;15.70;82.40
32865;DHT22;19219;44.500;11.188;2023-04-03T16:16:20;15.60;81.80
32865;DHT22;19219;44.500;11.188;2023-04-03T16:18:46;15.50;82.20
32865;DHT22;19219;44.500;11.188;2023-04-03T16:21:13;15.50;80.40
32865;DHT22;19219;44.500;11.188;2023-04-03T16:23:40;15.50;80.80
32865;DHT22;19219;44.500;11.188;2023-04-03T16:26:06;15.60;83.50
32865;DHT22;19219;44.500;11.188;2023-04-03T16:28:32;15.50;81.70
32865;DHT22;19219;44.500;11.188;2023-04-03T16:31:00;15.40;82.70
32865;DHT22;19219;44.500;11.188;2023-04-03T16:33:26;15.20;80.90
32865;DHT22;19219;44.500;11.188;2023-04-03T16:35:52;15.10;79.90
32865;DHT22;19219;44.500;11.188;2023-04-03T16:38:18;15.10;80.50
32865;DHT22;19219;44.500;11.188;2023-04-03T16:40:45;15.00;80.50
32865;DHT22;19219;44.500;11.188;2023-04-03T16:43:11;15.00;82.40
32865;DHT22;19219;44.500;11.188;2023-04-03T16:45:37;15.00;83.10
32865;DHT22;19219;44.500;11.188;2023-04-03T16:48:02;15.00;84.50
32865;DHT22;19219;44.500;11.188;2023-04-03T16:50:28;14.90;83.30
32865;DHT22;19219;44.500;11.188;2023-04-03T16:52:54;14.90;83.50
32865;DHT22;19219;44.500;11.188;2023-04-03T16:55:19;14.90;82.40